sensor_id;sensor_type;location;lat;lon;timestamp;pressure;altitude;pressure_sealevel;temperature;humidity
43681;BME280;29281;50.356;30.894;2022-11-15T07:10:19;100747.55;;;6.63;85.53
43681;BME280;29281;50.356;30.894;2022-11-15T07:11:42;100740.83;;;6.56;85.05
43681;BME280;29281;50.356;30.894;2022-11-15T07:13:04;100738.45;;;6.70;85.85
43681;BME280;29281;50.356;30.894;2022-11-15T07:14:26;100739.95;;;6.76;84.50
43681;BME280;29281;50.356;30.894;2022-11-15T07:15:50;100737.70;;;6.46;85.04
43681;BME280;29281;50.356;30.894;2022-11-15T07:17:11;100731.23;;;6.33;86.01
43681;BME280;29281;50.356;30.894;2022-11-15T07:18:35;100729.66;;;6.49;86.26
43681;BME280;29281;50.356;30.894;2022-11-15T07:19:58;100738.11;;;6.37;85.78
43681;BME280;29281;50.356;30.894;2022-11-15T07:21:20;100733.04;;;6.53;86.02
43681;BME280;29281;50.356;30.894;2022-11-15T07:22:44;100732.44;;;6.66;86.89
43681;BME280;29281;50.356;30.894;2022-11-15T07:24:09;100730.91;;;6.61;85.58
43681;BME280;29281;50.356;30.894;2022-11-15T07:25:32;100731.58;;;6.66;85.62
43681;BME280;29281;50.356;30.894;2022-11-15T07:26:53;100725.25;;;6.50;87.10
43681;BME280;29281;50.356;30.894;2022-11-15T11:57:05;100342.47;;;7.89;77.40
43681;BME280;29281;50.356;30.894;2022-11-15T11:58:14;100330.86;;;7.76;78.02
43681;BME280;29281;50.356;30.894;2022-11-15T11:59:36;100333.81;;;7.70;78.47
43681;BME280;29281;50.356;30.894;2022-11-15T12:00:40;100324.97;;;7.87;78.71
43681;BME280;29281;50.356;30.894;2022-11-15T12:01:46;100325.75;;;7.89;78.33
43681;BME280;29281;50.356;30.894;2022-11-15T12:03:11;100323.10;;;7.89;78.57
43681;BME280;29281;50.356;30.894;2022-11-15T12:05:39;100311.52;;;8.07;77.80
43681;BME280;29281;50.356;30.894;2022-11-15T12:07:58;100312.94;;;8.12;77.93
43681;BME280;29281;50.356;30.894;2022-11-15T12:09:12;100313.70;;;7.83;77.78
43681;BME280;29281;50.356;30.894;2022-11-15T12:13:48;100299.98;;;7.76;79.15
43681;BME280;29281;50.356;30.894;2022-11-15T12:14:57;100293.15;;;7.72;79.34
43681;BME280;29281;50.356;30.894;2022-11-15T12:16:35;100299.05;;;7.78;79.31
43681;BME280;29281;50.356;30.894;2022-11-15T12:17:12;100292.22;;;7.73;79.49
43681;BME280;29281;50.356;30.894;2022-11-15T12:18:18;100284.98;;;7.77;79.46
43681;BME280;29281;50.356;30.894;2022-11-15T12:19:21;100293.41;;;7.84;79.00
43681;BME280;29281;50.356;30.894;2022-11-15T12:20:28;100283.94;;;7.95;78.73
43681;BME280;29281;50.356;30.894;2022-11-15T12:22:59;100287.02;;;7.88;78.54
43681;BME280;29281;50.356;30.894;2022-11-15T12:24:14;100281.56;;;7.91;79.13
43681;BME280;29281;50.356;30.894;2022-11-15T12:25:20;100279.17;;;7.86;78.53
43681;BME280;29281;50.356;30.894;2022-11-15T12:26:26;100286.69;;;7.94;78.90
43681;BME280;29281;50.356;30.894;2022-11-15T12:27:38;100282.14;;;7.96;78.94
43681;BME280;29281;50.356;30.894;2022-11-15T12:28:45;100275.06;;;7.96;79.06
43681;BME280;29281;50.356;30.894;2022-11-15T12:29:50;100275.83;;;7.83;78.96
43681;BME280;29281;50.356;30.894;2022-11-15T12:30:56;100271.56;;;7.80;79.71
43681;BME280;29281;50.356;30.894;2022-11-15T12:32:00;100271.56;;;7.80;80.03
43681;BME280;29281;50.356;30.894;2022-11-15T12:33:16;100272.25;;;7.84;79.22
43681;BME280;29281;50.356;30.894;2022-11-15T12:35:39;100270.38;;;7.70;80.01
43681;BME280;29281;50.356;30.894;2022-11-15T12:36:44;100267.05;;;7.82;80.18
43681;BME280;29281;50.356;30.894;2022-11-15T12:37:49;100262.45;;;7.86;80.40
43681;BME280;29281;50.356;30.894;2022-11-15T12:39:06;100259.72;;;7.87;80.11
43681;BME280;29281;50.356;30.894;2022-11-15T12:40:18;100257.85;;;7.89;79.97
43681;BME280;29281;50.356;30.894;2022-11-15T12:41:23;100249.06;;;7.73;80.42
43681;BME280;29281;50.356;30.894;2022-11-15T12:43:37;100248.55;;;7.82;80.94
43681;BME280;29281;50.356;30.894;2022-11-15T12:45:47;100241.63;;;7.80;80.23
43681;BME280;29281;50.356;30.894;2022-11-15T12:46:58;100243.86;;;7.87;80.29
43681;BME280;29281;50.356;30.894;2022-11-15T12:53:32;100235.33;;;7.82;81.06
43681;BME280;29281;50.356;30.894;2022-11-15T12:55:29;100238.48;;;7.89;81.10
43681;BME280;29281;50.356;30.894;2022-11-15T12:56:34;100235.68;;;7.92;80.74
43681;BME280;29281;50.356;30.894;2022-11-15T12:57:38;100241.91;;;7.91;80.65
43681;BME280;29281;50.356;30.894;2022-11-15T13:00:56;100234.38;;;7.99;80.14
43681;BME280;29281;50.356;30.894;2022-11-15T13:02:00;100229.63;;;7.90;80.23
43681;BME280;29281;50.356;30.894;2022-11-15T13:03:21;100233.20;;;7.73;80.44
43681;BME280;29281;50.356;30.894;2022-11-15T13:04:27;100228.33;;;7.81;81.00
43681;BME280;29281;50.356;30.894;2022-11-15T13:05:51;100222.96;;;7.67;81.14
43681;BME280;29281;50.356;30.894;2022-11-15T13:06:44;100228.00;;;7.71;81.31
43681;BME280;29281;50.356;30.894;2022-11-15T13:08:49;100219.30;;;7.85;80.82
43681;BME280;29281;50.356;30.894;2022-11-15T13:09:53;100222.63;;;7.89;80.20
43681;BME280;29281;50.356;30.894;2022-11-15T13:10:58;100220.39;;;7.81;80.22
43681;BME280;29281;50.356;30.894;2022-11-15T13:12:10;100216.05;;;7.80;80.70
43681;BME280;29281;50.356;30.894;2022-11-15T13:13:41;100213.51;;;7.94;81.18
43681;BME280;29281;50.356;30.894;2022-11-15T13:15:51;100211.17;;;8.04;80.69
43681;BME280;29281;50.356;30.894;2022-11-15T13:16:56;100203.66;;;7.96;80.70
43681;BME280;29281;50.356;30.894;2022-11-15T13:17:56;100209.04;;;7.95;80.36
43681;BME280;29281;50.356;30.894;2022-11-15T13:19:01;100212.89;;;8.05;80.17
43681;BME280;29281;50.356;30.894;2022-11-15T13:21:21;100209.36;;;8.20;79.97
43681;BME280;29281;50.356;30.894;2022-11-15T13:23:57;100211.41;;;8.15;79.06
43681;BME280;29281;50.356;30.894;2022-11-15T13:25:01;100199.63;;;8.21;79.63
43681;BME280;29281;50.356;30.894;2022-11-15T13:27:14;100208.04;;;8.27;79.15
43681;BME280;29281;50.356;30.894;2022-11-15T13:29:25;100199.16;;;8.28;79.83
43681;BME280;29281;50.356;30.894;2022-11-15T13:30:29;100207.88;;;8.30;79.39
43681;BME280;29281;50.356;30.894;2022-11-15T13:32:38;100207.39;;;8.24;79.55
43681;BME280;29281;50.356;30.894;2022-11-15T13:33:41;100200.66;;;8.18;79.60
43681;BME280;29281;50.356;30.894;2022-11-15T13:34:45;100197.84;;;8.21;79.87
43681;BME280;29281;50.356;30.894;2022-11-15T13:35:54;100195.11;;;8.23;79.87
43681;BME280;29281;50.356;30.894;2022-11-15T13:36:58;100189.98;;;8.20;80.45
43681;BME280;29281;50.356;30.894;2022-11-15T13:38:03;100195.19;;;8.21;79.84
43681;BME280;29281;50.356;30.894;2022-11-15T13:40:36;100196.89;;;8.22;79.74
43681;BME280;29281;50.356;30.894;2022-11-15T13:41:47;100180.09;;;8.23;79.72
43681;BME280;29281;50.356;30.894;2022-11-15T13:42:51;100181.11;;;8.21;79.75
43681;BME280;29281;50.356;30.894;2022-11-15T13:43:55;100181.79;;;8.24;79.74
43681;BME280;29281;50.356;30.894;2022-11-15T13:45:03;100176.94;;;8.17;79.58
43681;BME280;29281;50.356;30.894;2022-11-15T13:46:09;100174.20;;;8.18;79.46
43681;BME280;29281;50.356;30.894;2022-11-15T13:47:13;100168.65;;;8.23;79.22
43681;BME280;29281;50.356;30.894;2022-11-15T13:48:16;100171.09;;;8.26;79.59
43681;BME280;29281;50.356;30.894;2022-11-15T13:49:20;100166.56;;;8.28;79.61
43681;BME280;29281;50.356;30.894;2022-11-15T13:50:26;100167.97;;;8.19;79.69
43681;BME280;29281;50.356;30.894;2022-11-15T13:52:35;100163.41;;;8.07;80.82
43681;BME280;29281;50.356;30.894;2022-11-15T13:53:40;100166.47;;;7.99;80.79
43681;BME280;29281;50.356;30.894;2022-11-15T13:54:56;100163.31;;;8.08;80.65
43681;BME280;29281;50.356;30.894;2022-11-15T13:56:00;100153.77;;;8.06;80.67
43681;BME280;29281;50.356;30.894;2022-11-15T13:57:07;100157.30;;;7.91;81.39
43681;BME280;29281;50.356;30.894;2022-11-15T13:58:10;100160.70;;;7.93;81.17
43681;BME280;29281;50.356;30.894;2022-11-15T13:59:24;100153.42;;;7.96;81.50
43681;BME280;29281;50.356;30.894;2022-11-15T14:00:44;100155.13;;;7.97;81.79
43681;BME280;29281;50.356;30.894;2022-11-15T14:01:48;100147.48;;;7.93;81.39
43681;BME280;29281;50.356;30.894;2022-11-15T14:02:55;100154.19;;;7.98;81.59
43681;BME280;29281;50.356;30.894;2022-11-15T14:03:59;100159.30;;;8.01;81.79
43681;BME280;29281;50.356;30.894;2022-11-15T14:06:21;100152.05;;;8.05;81.70
43681;BME280;29281;50.356;30.894;2022-11-15T14:07:24;100143.35;;;8.03;82.23
43681;BME280;29281;50.356;30.894;2022-11-15T14:08:36;100150.64;;;7.84;82.39
43681;BME280;29281;50.356;30.894;2022-11-15T14:09:40;100135.97;;;7.94;81.98
43681;BME280;29281;50.356;30.894;2022-11-15T14:10:44;100141.91;;;7.97;82.05
43681;BME280;29281;50.356;30.894;2022-11-15T14:11:53;100132.27;;;7.96;81.76
43681;BME280;29281;50.356;30.894;2022-11-15T14:12:56;100131.70;;;7.91;82.23
43681;BME280;29281;50.356;30.894;2022-11-15T14:15:19;100128.97;;;7.93;82.29
43681;BME280;29281;50.356;30.894;2022-11-15T14:16:23;100121.05;;;7.93;82.37
43681;BME280;29281;50.356;30.894;2022-11-15T14:19:46;100122.49;;;7.83;82.61
43681;BME280;29281;50.356;30.894;2022-11-15T14:20:49;100121.98;;;7.92;82.72
43681;BME280;29281;50.356;30.894;2022-11-15T14:22:07;100113.54;;;7.85;82.77
43681;BME280;29281;50.356;30.894;2022-11-15T14:23:25;100117.12;;;7.84;82.88
43681;BME280;29281;50.356;30.894;2022-11-15T14:24:31;100114.48;;;7.84;83.15
43681;BME280;29281;50.356;30.894;2022-11-15T14:25:37;100114.65;;;7.81;82.94
43681;BME280;29281;50.356;30.894;2022-11-15T14:26:40;100116.44;;;7.81;83.53
43681;BME280;29281;50.356;30.894;2022-11-15T14:29:25;100105.34;;;7.90;82.32
43681;BME280;29281;50.356;30.894;2022-11-15T14:30:29;100105.98;;;7.79;82.73
43681;BME280;29281;50.356;30.894;2022-11-15T14:31:32;100105.47;;;7.72;82.73
43681;BME280;29281;50.356;30.894;2022-11-15T14:32:47;100102.57;;;7.77;82.98
43681;BME280;29281;50.356;30.894;2022-11-15T14:33:51;100102.28;;;7.82;82.97
43681;BME280;29281;50.356;30.894;2022-11-15T14:35:02;100106.38;;;7.87;82.50
43681;BME280;29281;50.356;30.894;2022-11-15T14:36:10;100105.61;;;7.85;82.34
43681;BME280;29281;50.356;30.894;2022-11-15T14:37:32;100101.00;;;7.89;82.57
43681;BME280;29281;50.356;30.894;2022-11-15T14:38:15;100100.83;;;7.92;82.52
43681;BME280;29281;50.356;30.894;2022-11-15T14:39:19;100095.54;;;7.92;82.08
43681;BME280;29281;50.356;30.894;2022-11-15T14:40:27;100095.97;;;7.84;82.88
43681;BME280;29281;50.356;30.894;2022-11-15T22:02:26;99655.42;;;8.62;85.32
43681;BME280;29281;50.356;30.894;2022-11-15T22:03:30;99662.96;;;8.68;85.54
43681;BME280;29281;50.356;30.894;2022-11-15T22:04:37;99654.17;;;8.68;85.61
43681;BME280;29281;50.356;30.894;2022-11-15T22:05:42;99656.72;;;8.69;85.26
43681;BME280;29281;50.356;30.894;2022-11-15T22:06:45;99654.17;;;8.80;84.90
43681;BME280;29281;50.356;30.894;2022-11-15T22:07:50;99655.52;;;8.86;84.72
43681;BME280;29281;50.356;30.894;2022-11-15T22:08:53;99655.33;;;8.76;85.18
43681;BME280;29281;50.356;30.894;2022-11-15T22:09:56;99654.06;;;8.82;85.05
43681;BME280;29281;50.356;30.894;2022-11-15T22:11:01;99652.37;;;8.81;84.81
43681;BME280;29281;50.356;30.894;2022-11-15T22:12:06;99649.63;;;8.70;85.12
43681;BME280;29281;50.356;30.894;2022-11-15T22:13:10;99657.32;;;8.48;86.11
43681;BME280;29281;50.356;30.894;2022-11-15T22:14:14;99652.57;;;8.53;86.29
43681;BME280;29281;50.356;30.894;2022-11-15T22:15:17;99647.80;;;8.58;86.15
43681;BME280;29281;50.356;30.894;2022-11-15T22:16:22;99644.73;;;8.64;85.77
43681;BME280;29281;50.356;30.894;2022-11-15T22:17:27;99648.54;;;8.60;85.65
43681;BME280;29281;50.356;30.894;2022-11-15T22:18:32;99642.63;;;8.69;85.90
43681;BME280;29281;50.356;30.894;2022-11-15T22:19:37;99650.23;;;8.73;85.52
43681;BME280;29281;50.356;30.894;2022-11-15T22:20:51;99645.17;;;8.70;85.41
43681;BME280;29281;50.356;30.894;2022-11-15T22:21:47;99648.23;;;8.77;85.39
43681;BME280;29281;50.356;30.894;2022-11-15T22:22:50;99638.08;;;8.84;85.23
43681;BME280;29281;50.356;30.894;2022-11-15T22:23:54;99643.98;;;8.87;84.86
43681;BME280;29281;50.356;30.894;2022-11-15T22:25:01;99639.12;;;8.94;84.45
43681;BME280;29281;50.356;30.894;2022-11-15T22:26:06;99640.27;;;8.90;84.56
43681;BME280;29281;50.356;30.894;2022-11-15T22:27:09;99633.84;;;8.81;84.73
43681;BME280;29281;50.356;30.894;2022-11-15T22:28:13;99635.20;;;8.61;85.46
43681;BME280;29281;50.356;30.894;2022-11-15T22:29:33;99634.25;;;8.62;85.79
43681;BME280;29281;50.356;30.894;2022-11-15T22:30:37;99629.16;;;8.59;86.29
43681;BME280;29281;50.356;30.894;2022-11-15T22:31:41;99633.41;;;8.62;86.08
43681;BME280;29281;50.356;30.894;2022-11-15T22:32:43;99625.88;;;8.56;86.23
43681;BME280;29281;50.356;30.894;2022-11-15T22:33:48;99631.16;;;8.56;86.47
43681;BME280;29281;50.356;30.894;2022-11-15T22:34:53;99625.16;;;8.66;86.06
43681;BME280;29281;50.356;30.894;2022-11-15T22:35:57;99620.92;;;8.51;86.42
43681;BME280;29281;50.356;30.894;2022-11-15T22:37:01;99618.17;;;8.65;86.07
43681;BME280;29281;50.356;30.894;2022-11-15T22:38:07;99622.91;;;8.73;85.79
43681;BME280;29281;50.356;30.894;2022-11-15T22:39:11;99617.73;;;8.59;86.36
43681;BME280;29281;50.356;30.894;2022-11-15T22:40:14;99617.33;;;8.52;86.49
43681;BME280;29281;50.356;30.894;2022-11-15T22:41:17;99614.03;;;8.49;87.04
43681;BME280;29281;50.356;30.894;2022-11-15T22:42:21;99616.58;;;8.63;86.48
43681;BME280;29281;50.356;30.894;2022-11-15T22:43:25;99611.38;;;8.74;85.99
43681;BME280;29281;50.356;30.894;2022-11-15T22:44:29;99617.41;;;8.76;85.63
43681;BME280;29281;50.356;30.894;2022-11-15T22:45:34;99616.25;;;8.80;85.72
43681;BME280;29281;50.356;30.894;2022-11-15T22:46:37;99604.27;;;8.87;85.16
43681;BME280;29281;50.356;30.894;2022-11-15T22:47:41;99604.61;;;8.83;84.77
43681;BME280;29281;50.356;30.894;2022-11-15T22:48:48;99608.95;;;8.84;84.79
43681;BME280;29281;50.356;30.894;2022-11-15T22:49:52;99611.36;;;8.87;85.09
43681;BME280;29281;50.356;30.894;2022-11-15T22:50:59;99601.30;;;8.92;84.91
43681;BME280;29281;50.356;30.894;2022-11-15T22:52:03;99597.70;;;8.93;84.80
43681;BME280;29281;50.356;30.894;2022-11-15T22:53:07;99596.19;;;9.01;84.63
43681;BME280;29281;50.356;30.894;2022-11-15T22:54:09;99599.83;;;9.00;84.85
43681;BME280;29281;50.356;30.894;2022-11-15T22:55:15;99599.68;;;9.02;84.32
43681;BME280;29281;50.356;30.894;2022-11-15T22:56:20;99595.38;;;9.01;84.21
43681;BME280;29281;50.356;30.894;2022-11-15T22:57:26;99595.58;;;8.98;84.37
43681;BME280;29281;50.356;30.894;2022-11-15T22:58:30;99598.55;;;8.93;84.87
43681;BME280;29281;50.356;30.894;2022-11-15T22:59:35;99599.29;;;8.95;84.60
43681;BME280;29281;50.356;30.894;2022-11-15T23:00:40;99595.05;;;8.93;84.79
43681;BME280;29281;50.356;30.894;2022-11-15T23:01:44;99594.12;;;8.81;85.16
43681;BME280;29281;50.356;30.894;2022-11-15T23:02:50;99601.01;;;8.84;85.34
43681;BME280;29281;50.356;30.894;2022-11-15T23:03:55;99596.77;;;8.81;85.37
43681;BME280;29281;50.356;30.894;2022-11-15T23:04:59;99592.11;;;8.85;85.50
43681;BME280;29281;50.356;30.894;2022-11-15T23:06:06;99587.77;;;8.84;85.80
43681;BME280;29281;50.356;30.894;2022-11-15T23:07:10;99590.70;;;8.92;85.40
43681;BME280;29281;50.356;30.894;2022-11-15T23:08:14;99588.80;;;8.94;84.69
43681;BME280;29281;50.356;30.894;2022-11-15T23:09:17;99591.98;;;8.99;84.60
43681;BME280;29281;50.356;30.894;2022-11-15T23:10:21;99588.70;;;8.95;84.56
43681;BME280;29281;50.356;30.894;2022-11-15T23:11:48;99584.45;;;8.93;84.60
43681;BME280;29281;50.356;30.894;2022-11-15T23:13:11;99584.99;;;8.98;84.65
43681;BME280;29281;50.356;30.894;2022-11-15T23:14:22;99581.14;;;9.02;84.32
43681;BME280;29281;50.356;30.894;2022-11-15T23:15:27;99585.73;;;9.00;84.56
43681;BME280;29281;50.356;30.894;2022-11-15T23:16:35;99579.38;;;8.90;84.79
43681;BME280;29281;50.356;30.894;2022-11-15T23:17:39;99582.13;;;8.88;85.18
43681;BME280;29281;50.356;30.894;2022-11-15T23:18:42;99580.22;;;8.90;85.16
43681;BME280;29281;50.356;30.894;2022-11-15T23:19:46;99577.67;;;8.89;85.03
43681;BME280;29281;50.356;30.894;2022-11-15T23:20:51;99577.47;;;8.92;84.81
43681;BME280;29281;50.356;30.894;2022-11-15T23:21:54;99577.36;;;8.93;85.14
43681;BME280;29281;50.356;30.894;2022-11-15T23:23:15;99583.40;;;8.95;84.80
43681;BME280;29281;50.356;30.894;2022-11-15T23:24:17;99585.30;;;8.93;84.77
43681;BME280;29281;50.356;30.894;2022-11-15T23:25:21;99575.24;;;8.98;84.62
43681;BME280;29281;50.356;30.894;2022-11-15T23:26:26;99578.63;;;9.00;84.57
43681;BME280;29281;50.356;30.894;2022-11-15T23:27:31;99577.15;;;8.96;84.61
43681;BME280;29281;50.356;30.894;2022-11-15T23:28:34;99569.20;;;8.96;84.52
43681;BME280;29281;50.356;30.894;2022-11-15T23:29:40;99570.48;;;8.91;85.10
43681;BME280;29281;50.356;30.894;2022-11-15T23:31:08;99569.42;;;8.93;84.88
43681;BME280;29281;50.356;30.894;2022-11-15T23:32:26;99565.28;;;8.89;84.93
43681;BME280;29281;50.356;30.894;2022-11-15T23:33:47;99571.86;;;8.96;84.75
43681;BME280;29281;50.356;30.894;2022-11-15T23:35:00;99566.98;;;8.90;84.62
43681;BME280;29281;50.356;30.894;2022-11-15T23:36:05;99566.77;;;8.93;84.86
43681;BME280;29281;50.356;30.894;2022-11-15T23:37:12;99559.56;;;8.95;84.89
43681;BME280;29281;50.356;30.894;2022-11-15T23:38:16;99562.42;;;8.92;84.68
43681;BME280;29281;50.356;30.894;2022-11-15T23:39:20;99557.66;;;8.97;84.73
43681;BME280;29281;50.356;30.894;2022-11-15T23:40:24;99554.91;;;8.86;84.68
43681;BME280;29281;50.356;30.894;2022-11-15T23:41:29;99558.32;;;8.75;85.38
43681;BME280;29281;50.356;30.894;2022-11-15T23:42:33;99552.39;;;8.72;86.03
43681;BME280;29281;50.356;30.894;2022-11-15T23:43:36;99556.10;;;8.82;85.46
43681;BME280;29281;50.356;30.894;2022-11-15T23:44:41;99557.34;;;8.89;85.36
43681;BME280;29281;50.356;30.894;2022-11-15T23:45:45;99564.33;;;8.90;85.16
43681;BME280;29281;50.356;30.894;2022-11-15T23:46:48;99555.67;;;8.75;85.52
43681;BME280;29281;50.356;30.894;2022-11-15T23:47:52;99549.88;;;8.70;86.00
43681;BME280;29281;50.356;30.894;2022-11-15T23:48:56;99555.17;;;8.70;85.84
43681;BME280;29281;50.356;30.894;2022-11-15T23:50:00;99544.59;;;8.70;85.76
43681;BME280;29281;50.356;30.894;2022-11-15T23:51:05;99547.52;;;8.78;85.65
43681;BME280;29281;50.356;30.894;2022-11-15T23:52:10;99550.06;;;8.80;85.38
43681;BME280;29281;50.356;30.894;2022-11-15T23:53:14;99554.30;;;8.83;85.45
43681;BME280;29281;50.356;30.894;2022-11-15T23:54:18;99552.08;;;8.76;85.42
43681;BME280;29281;50.356;30.894;2022-11-15T23:55:22;99551.02;;;8.79;85.52
43681;BME280;29281;50.356;30.894;2022-11-15T23:56:26;99551.45;;;8.86;85.51
43681;BME280;29281;50.356;30.894;2022-11-15T23:57:29;99555.44;;;8.91;85.22
43681;BME280;29281;50.356;30.894;2022-11-15T23:58:33;99549.82;;;8.96;84.87
43681;BME280;29281;50.356;30.894;2022-11-15T23:59:37;99549.61;;;8.99;84.65
